Terminal Aerodrome Forecast
Issued by NWS Sterling, VA

Current Version | Previous Version | Graphics & Text | Print | Product List | Glossary On
Versions: 1 2 3 4 5 6 7 8 9 10 11 12 13 14 15 16 17 18 19 20 21 22 23 24 25 26
238
FTUS41 KLWX 240534
TAFIAD
TAF
KIAD 240534Z 2406/2512 01006KT 2SM -RA BR BKN005 OVC025
     FM241100 04004KT 3SM BR BKN010 OVC025
     FM241300 06005KT 5SM BR BKN015 OVC025
     FM241700 12007KT P6SM BKN020 BKN035
     FM250100 11009KT P6SM BKN008 OVC025
     FM250300 10011G18KT 3SM -RA BKN008 OVC025
     FM251100 10007KT 3SM -RA BKN008 OVC025=

USA.gov is the U.S. government's official web portal to all federal, state and local government web resources and services.